createdAt,value
2018-12-14T00:00:56.077Z,73.37
2018-12-14T00:01:56.510Z,74.13
2018-12-14T00:02:57.084Z,74.12
2018-12-14T00:03:57.704Z,74.88
2018-12-14T00:04:05.994Z,74.68
2018-12-14T00:05:06.528Z,74.67
2018-12-14T00:06:07.552Z,74.32
2018-12-14T00:07:07.965Z,74.09
2018-12-14T00:08:08.568Z,74.06
2018-12-14T00:09:08.970Z,74.39
2018-12-14T00:10:09.412Z,74.38
2018-12-14T00:11:09.814Z,73.94
2018-12-14T00:12:10.212Z,73.14
2018-12-14T00:13:10.617Z,73.79
2018-12-14T00:14:11.561Z,73.75
2018-12-14T00:15:11.930Z,74.25
2018-12-14T00:16:11.446Z,73.79
2018-12-14T00:17:12.859Z,73.69
2018-12-14T00:18:12.962Z,73.27
2018-12-14T00:19:13.779Z,73.28
2018-12-14T00:20:14.458Z,73.52
2018-12-14T00:21:15.194Z,74.34
2018-12-14T00:22:15.623Z,74.64
2018-12-14T00:23:16.000Z,73.77
2018-12-14T00:24:16.481Z,74.38
2018-12-14T00:25:17.065Z,74.54
2018-12-14T00:26:17.927Z,74.38
2018-12-14T00:27:16.801Z,75.22
2018-12-14T00:28:16.890Z,74.77
2018-12-14T00:29:18.408Z,74.94
2018-12-14T00:30:18.012Z,75.01
2018-12-14T00:31:19.416Z,74.86
2018-12-14T00:32:19.883Z,74.59
2018-12-14T00:33:20.271Z,74.47
2018-12-14T00:34:20.687Z,75.01
2018-12-14T00:35:21.199Z,74.67
2018-12-14T00:36:21.766Z,74.82
2018-12-14T00:37:22.329Z,74.63
2018-12-14T00:38:22.763Z,75.15
2018-12-14T00:39:23.447Z,74.44
2018-12-14T00:40:24.241Z,74.59
2018-12-14T00:41:24.751Z,74.62
2018-12-14T00:42:25.390Z,75.30
2018-12-14T00:43:25.896Z,74.60
2018-12-14T00:44:26.488Z,74.47
2018-12-14T00:45:27.335Z,74.12
2018-12-14T00:46:27.742Z,74.92
2018-12-14T00:47:28.269Z,74.97
2018-12-14T00:48:29.016Z,74.93
2018-12-14T00:49:29.473Z,74.88
2018-12-14T00:50:29.891Z,74.32
2018-12-14T00:51:30.658Z,73.64
2018-12-14T00:51:38.999Z,73.50
2018-12-14T00:52:40.536Z,73.43
2018-12-14T00:53:41.007Z,74.00
2018-12-14T00:54:41.555Z,74.14
2018-12-14T00:55:42.012Z,75.15
2018-12-14T00:56:42.373Z,75.16
2018-12-14T00:57:42.806Z,75.09
2018-12-14T00:58:42.819Z,75.60
2018-12-14T00:59:43.495Z,76.01
2018-12-14T01:00:43.908Z,75.74
2018-12-14T01:01:44.506Z,74.27
2018-12-14T01:02:44.910Z,73.61
2018-12-14T01:03:45.670Z,73.83
2018-12-14T01:04:46.120Z,73.58
2018-12-14T01:05:46.547Z,74.02
2018-12-14T01:06:47.052Z,73.97
2018-12-14T01:07:47.942Z,73.82
2018-12-14T01:08:48.440Z,73.89
2018-12-14T01:09:49.366Z,73.23
2018-12-14T01:10:49.812Z,73.47
2018-12-14T01:11:50.328Z,73.35
2018-12-14T01:12:50.696Z,73.56
2018-12-14T01:13:51.107Z,73.86
2018-12-14T01:14:51.571Z,73.94
2018-12-14T01:15:51.963Z,73.43
2018-12-14T01:16:52.343Z,73.79
2018-12-14T01:17:52.780Z,74.36
2018-12-14T01:18:53.165Z,74.19
2018-12-14T01:19:53.527Z,74.47
2018-12-14T01:20:54.272Z,74.01
2018-12-14T01:21:54.661Z,73.58
2018-12-14T01:22:55.491Z,73.16
2018-12-14T01:23:54.917Z,72.81
2018-12-14T01:24:56.898Z,73.01
2018-12-14T01:25:57.318Z,73.22
2018-12-14T01:26:57.491Z,73.08
2018-12-14T01:27:57.890Z,72.66
2018-12-14T01:28:58.303Z,73.33
2018-12-14T01:29:58.992Z,72.35
2018-12-14T01:30:59.428Z,72.40
2018-12-14T01:31:59.905Z,72.23
2018-12-14T01:33:00.523Z,72.69
2018-12-14T01:34:01.343Z,72.28
2018-12-14T01:35:01.899Z,72.31
2018-12-14T01:36:02.783Z,72.46
2018-12-14T01:37:03.318Z,73.04
2018-12-14T01:37:11.372Z,72.82
2018-12-14T01:38:12.820Z,72.89
2018-12-14T01:39:13.385Z,72.90
2018-12-14T01:40:13.934Z,73.15
2018-12-14T01:41:14.404Z,72.97
2018-12-14T01:42:15.055Z,72.94
2018-12-14T01:43:15.511Z,73.37
2018-12-14T01:44:15.882Z,73.54
2018-12-14T01:45:16.218Z,73.22
2018-12-14T01:46:16.654Z,73.77
2018-12-14T01:47:17.119Z,73.95
2018-12-14T01:48:17.673Z,73.77
2018-12-14T01:49:18.195Z,73.79
2018-12-14T01:50:18.568Z,73.57
2018-12-14T01:51:19.160Z,73.25
2018-12-14T01:52:19.930Z,73.00
2018-12-14T01:53:20.399Z,72.92
2018-12-14T01:54:20.783Z,73.57
2018-12-14T01:55:21.377Z,74.26
2018-12-14T01:56:21.800Z,73.92
2018-12-14T01:57:22.231Z,73.06
2018-12-14T01:58:22.572Z,73.58
2018-12-14T01:59:23.007Z,73.89
2018-12-14T02:00:23.394Z,73.49
2018-12-14T02:01:23.804Z,73.04
2018-12-14T02:02:24.606Z,72.94
2018-12-14T02:03:23.690Z,72.89
2018-12-14T02:04:25.238Z,73.15
2018-12-14T02:05:26.030Z,73.34
2018-12-14T02:06:26.854Z,73.06
2018-12-14T02:07:27.208Z,73.33
2018-12-14T02:08:27.631Z,73.42
2018-12-14T02:09:28.271Z,73.00
2018-12-14T02:10:28.687Z,71.85
2018-12-14T02:11:29.321Z,72.13
2018-12-14T02:12:29.833Z,72.23
2018-12-14T02:13:30.358Z,72.94
2018-12-14T02:14:30.701Z,72.90
2018-12-14T02:15:30.740Z,72.74
2018-12-14T02:16:31.564Z,72.38
2018-12-14T02:17:32.129Z,71.58
2018-12-14T02:18:33.035Z,71.88
2018-12-14T02:19:33.801Z,70.58
2018-12-14T02:20:34.687Z,71.23
2018-12-14T02:21:35.512Z,70.75
2018-12-14T02:22:36.236Z,70.86
2018-12-14T02:22:44.476Z,71.26
2018-12-14T02:23:46.099Z,71.25
2018-12-14T02:24:46.591Z,71.64
2018-12-14T02:25:47.012Z,71.37
2018-12-14T02:26:47.482Z,71.20
2018-12-14T02:27:47.885Z,71.36
2018-12-14T02:28:48.219Z,71.99
2018-12-14T02:29:48.765Z,72.00
2018-12-14T02:30:49.082Z,71.50
2018-12-14T02:31:49.657Z,70.93
2018-12-14T02:32:50.379Z,71.73
2018-12-14T02:33:50.735Z,71.87
2018-12-14T02:34:51.305Z,71.40
2018-12-14T02:35:52.034Z,70.96
2018-12-14T02:36:52.492Z,71.66
2018-12-14T02:37:53.158Z,71.52
2018-12-14T02:38:53.538Z,70.55
2018-12-14T02:39:53.956Z,70.14
2018-12-14T02:40:54.389Z,70.71
2018-12-14T02:41:54.792Z,71.09
2018-12-14T02:42:55.039Z,71.56
2018-12-14T02:43:55.498Z,71.22
2018-12-14T02:44:55.937Z,71.50
2018-12-14T02:45:56.081Z,71.69
2018-12-14T02:46:56.402Z,71.90
2018-12-14T02:47:56.795Z,70.84
2018-12-14T02:48:57.131Z,70.81
2018-12-14T02:49:57.493Z,72.11
2018-12-14T02:50:57.836Z,71.60
2018-12-14T02:51:58.162Z,70.54
2018-12-14T02:52:58.531Z,70.88
2018-12-14T02:53:59.007Z,71.11
2018-12-14T02:54:59.430Z,71.64
2018-12-14T02:55:59.924Z,70.37
2018-12-14T02:57:00.423Z,69.28
2018-12-14T02:58:00.810Z,69.81
2018-12-14T02:59:01.459Z,70.88
2018-12-14T03:00:01.926Z,70.68
2018-12-14T03:01:02.446Z,71.10
2018-12-14T03:02:03.223Z,71.00
2018-12-14T03:03:04.264Z,71.22
2018-12-14T03:03:20.007Z,71.42
2018-12-14T03:04:20.045Z,71.46
2018-12-14T03:05:21.918Z,70.74
2018-12-14T03:06:22.805Z,70.30
2018-12-14T03:07:23.721Z,70.53
2018-12-14T03:08:24.260Z,70.86
2018-12-14T03:09:24.524Z,70.73
2018-12-14T03:10:25.024Z,70.98
2018-12-14T03:11:25.880Z,71.22
2018-12-14T03:12:26.924Z,71.45
2018-12-14T03:13:26.019Z,71.35
2018-12-14T03:14:27.008Z,71.70
2018-12-14T03:15:27.568Z,71.77
2018-12-14T03:16:27.950Z,71.03
2018-12-14T03:17:28.770Z,71.43
2018-12-14T03:18:29.178Z,71.02
2018-12-14T03:19:29.510Z,71.54
2018-12-14T03:20:29.871Z,71.77
2018-12-14T03:21:30.378Z,71.89
2018-12-14T03:22:31.099Z,71.98
2018-12-14T03:23:31.538Z,71.53
2018-12-14T03:24:31.921Z,71.66
2018-12-14T03:25:32.429Z,71.61
2018-12-14T03:26:32.343Z,71.38
2018-12-14T03:27:34.008Z,71.49
2018-12-14T03:28:34.948Z,71.57
2018-12-14T03:29:35.872Z,71.61
2018-12-14T03:30:36.241Z,71.05
2018-12-14T03:31:36.693Z,71.33
2018-12-14T03:32:37.343Z,71.28
2018-12-14T03:33:36.679Z,71.59
2018-12-14T03:34:38.063Z,71.43
2018-12-14T03:35:38.461Z,71.45
2018-12-14T03:36:38.841Z,71.19
2018-12-14T03:37:39.650Z,71.51
2018-12-14T03:38:40.071Z,72.10
2018-12-14T03:39:40.757Z,71.30
2018-12-14T03:40:41.121Z,71.58
2018-12-14T03:41:41.474Z,71.62
2018-12-14T03:42:41.914Z,71.30
2018-12-14T03:43:42.348Z,71.52
2018-12-14T03:44:42.719Z,71.58
2018-12-14T03:45:43.240Z,72.22
2018-12-14T03:46:43.863Z,71.53
2018-12-14T03:47:44.323Z,71.80
2018-12-14T03:48:44.719Z,71.96
2018-12-14T03:49:45.673Z,71.71
2018-12-14T03:49:53.729Z,71.97
2018-12-14T03:50:55.366Z,72.06
2018-12-14T03:51:55.649Z,72.44
2018-12-14T03:52:56.154Z,72.04
2018-12-14T03:53:56.215Z,71.84
2018-12-14T03:54:57.165Z,71.42
2018-12-14T03:55:57.531Z,72.31
2018-12-14T03:56:57.933Z,72.18
2018-12-14T03:57:58.260Z,72.07
2018-12-14T03:58:58.815Z,72.90
2018-12-14T03:59:59.242Z,73.16
2018-12-14T04:00:59.790Z,73.42
2018-12-14T04:02:00.222Z,73.31
2018-12-14T04:03:00.685Z,72.94
2018-12-14T04:04:01.046Z,72.36
2018-12-14T04:05:01.467Z,72.83
2018-12-14T04:06:02.033Z,72.70
2018-12-14T04:07:02.393Z,72.73
2018-12-14T04:08:02.794Z,71.87
2018-12-14T04:09:03.254Z,72.89
2018-12-14T04:10:03.764Z,72.89
2018-12-14T04:11:04.094Z,72.52
2018-12-14T04:12:04.244Z,72.47
2018-12-14T04:13:04.853Z,71.52
2018-12-14T04:14:05.477Z,72.14
2018-12-14T04:15:06.101Z,73.10
2018-12-14T04:16:06.692Z,73.03
2018-12-14T04:17:06.697Z,72.72
2018-12-14T04:18:07.474Z,71.76
2018-12-14T04:19:08.388Z,72.15
2018-12-14T04:20:08.763Z,72.49
2018-12-14T04:21:09.559Z,72.39
2018-12-14T04:22:09.567Z,72.23
2018-12-14T04:23:10.256Z,72.39
2018-12-14T04:24:11.013Z,72.33
2018-12-14T04:25:11.437Z,71.86
2018-12-14T04:26:11.770Z,71.59
2018-12-14T04:27:12.334Z,71.35
2018-12-14T04:28:12.776Z,72.15
2018-12-14T04:29:13.313Z,72.15
2018-12-14T04:30:14.064Z,72.38
2018-12-14T04:31:14.461Z,72.75
2018-12-14T04:32:14.940Z,71.77
2018-12-14T04:33:14.805Z,72.21
2018-12-14T04:34:16.305Z,72.10
2018-12-14T04:35:16.906Z,71.80
2018-12-14T04:36:16.146Z,72.01
2018-12-14T04:36:24.486Z,72.25
2018-12-14T04:37:26.071Z,72.36
2018-12-14T04:38:26.491Z,72.85
2018-12-14T04:39:26.992Z,72.82
2018-12-14T04:40:27.440Z,72.54
2018-12-14T04:41:28.279Z,72.52
2018-12-14T04:42:28.586Z,72.89
2018-12-14T04:43:28.697Z,72.72
2018-12-14T04:44:29.184Z,72.84
2018-12-14T04:45:29.517Z,72.02
2018-12-14T04:46:29.190Z,72.14
2018-12-14T04:47:30.852Z,72.22
2018-12-14T04:48:31.214Z,72.19
2018-12-14T04:49:31.674Z,71.68
2018-12-14T04:50:32.048Z,71.59
2018-12-14T04:51:32.630Z,71.87
2018-12-14T04:52:33.036Z,72.25
2018-12-14T04:53:33.038Z,71.91
2018-12-14T04:54:33.585Z,72.17
2018-12-14T04:55:33.853Z,72.51
2018-12-14T04:56:34.341Z,73.11
2018-12-14T04:57:34.777Z,73.04
2018-12-14T04:58:35.198Z,72.71
2018-12-14T04:59:35.799Z,71.90
2018-12-14T05:00:36.190Z,71.59
2018-12-14T05:01:36.670Z,72.26
2018-12-14T05:02:37.163Z,72.51
2018-12-14T05:03:37.785Z,72.18
2018-12-14T05:04:38.427Z,71.49
2018-12-14T05:05:38.782Z,72.25
2018-12-14T05:06:39.176Z,72.15
2018-12-14T05:07:39.545Z,72.88
2018-12-14T05:08:40.234Z,73.23
2018-12-14T05:09:40.683Z,73.15
2018-12-14T05:10:41.100Z,71.91
2018-12-14T05:11:41.570Z,71.62
2018-12-14T05:12:41.947Z,72.21
2018-12-14T05:13:42.416Z,72.26
2018-12-14T05:14:42.987Z,71.99
2018-12-14T05:15:43.404Z,71.93
2018-12-14T05:16:43.828Z,72.57
2018-12-14T05:17:44.326Z,72.12
2018-12-14T05:18:44.798Z,71.92
2018-12-14T05:19:45.491Z,71.60
2018-12-14T05:20:45.849Z,71.68
2018-12-14T05:21:46.200Z,72.18
2018-12-14T05:21:54.615Z,70.76
2018-12-14T05:22:56.137Z,70.53
2018-12-14T05:23:56.691Z,70.12
2018-12-14T05:24:56.995Z,70.58
2018-12-14T05:25:57.334Z,70.73
2018-12-14T05:26:57.695Z,71.12
2018-12-14T05:27:58.060Z,71.51
2018-12-14T05:28:58.574Z,71.05
2018-12-14T05:29:58.931Z,70.41
2018-12-14T05:30:59.379Z,71.57
2018-12-14T05:31:59.843Z,72.02
2018-12-14T05:33:00.297Z,71.86
2018-12-14T05:34:01.053Z,71.20
2018-12-14T05:35:01.575Z,70.85
2018-12-14T05:36:01.213Z,71.22
2018-12-14T05:37:02.700Z,71.36
2018-12-14T05:38:02.406Z,71.54
2018-12-14T05:39:03.869Z,71.30
2018-12-14T05:40:04.520Z,71.35
2018-12-14T05:41:05.118Z,71.40
2018-12-14T05:42:05.685Z,71.29
2018-12-14T05:43:06.109Z,70.44
2018-12-14T05:44:06.524Z,70.50
2018-12-14T05:45:06.874Z,69.97
2018-12-14T05:46:07.637Z,70.19
2018-12-14T05:47:08.461Z,71.01
2018-12-14T05:48:09.100Z,70.88
2018-12-14T05:49:09.882Z,71.22
2018-12-14T05:50:10.737Z,71.04
2018-12-14T05:51:10.230Z,71.21
2018-12-14T05:52:11.642Z,71.66
2018-12-14T05:53:12.118Z,71.64
2018-12-14T05:54:12.901Z,71.22
2018-12-14T05:55:13.242Z,71.70
2018-12-14T05:56:13.625Z,72.00
2018-12-14T05:57:14.026Z,72.19
2018-12-14T05:58:14.488Z,72.18
2018-12-14T05:59:15.424Z,71.98
2018-12-14T06:00:15.349Z,72.00
2018-12-14T06:01:17.107Z,72.51
2018-12-14T06:02:17.895Z,71.82
2018-12-14T06:03:18.355Z,72.47
2018-12-14T06:04:18.017Z,72.53
2018-12-14T06:05:19.357Z,72.56
2018-12-14T06:06:19.686Z,72.43
2018-12-14T06:07:20.115Z,72.07
2018-12-14T06:08:19.829Z,71.86
2018-12-14T06:09:20.721Z,71.61
2018-12-14T06:10:22.379Z,70.12
2018-12-14T06:11:22.724Z,70.12
2018-12-14T06:11:30.978Z,70.81
2018-12-14T06:12:32.308Z,70.80
2018-12-14T06:13:31.797Z,70.60
2018-12-14T06:14:33.321Z,71.40
2018-12-14T06:15:34.052Z,71.70
2018-12-14T06:16:34.815Z,71.61
2018-12-14T06:17:35.235Z,71.44
2018-12-14T06:18:35.696Z,70.24
2018-12-14T06:19:36.269Z,70.42
2018-12-14T06:20:36.919Z,70.48
2018-12-14T06:21:37.290Z,70.69
2018-12-14T06:22:37.681Z,71.18
2018-12-14T06:23:38.180Z,71.75
2018-12-14T06:24:38.508Z,71.59
2018-12-14T06:25:38.849Z,70.98
2018-12-14T06:26:39.195Z,71.25
2018-12-14T06:27:39.740Z,71.07
2018-12-14T06:28:40.516Z,70.77
2018-12-14T06:29:41.049Z,70.57
2018-12-14T06:30:41.473Z,71.18
2018-12-14T06:31:42.876Z,71.30
2018-12-14T06:32:42.390Z,71.81
2018-12-14T06:33:42.891Z,71.30
2018-12-14T06:34:43.308Z,71.09
2018-12-14T06:35:43.723Z,71.55
2018-12-14T06:36:44.083Z,70.77
2018-12-14T06:37:44.722Z,71.20
2018-12-14T06:38:45.119Z,70.70
2018-12-14T06:39:45.546Z,70.94
2018-12-14T06:40:45.882Z,71.69
2018-12-14T06:41:46.205Z,70.30
2018-12-14T06:42:46.561Z,71.14
2018-12-14T06:43:45.632Z,70.98
2018-12-14T06:44:47.382Z,71.25
2018-12-14T06:45:47.975Z,71.25
2018-12-14T06:46:48.288Z,70.74
2018-12-14T06:47:48.717Z,71.00
2018-12-14T06:48:49.715Z,71.45
2018-12-14T06:49:50.188Z,71.35
2018-12-14T06:50:50.788Z,70.82
2018-12-14T06:51:51.359Z,70.51
2018-12-14T06:52:51.859Z,70.69
2018-12-14T06:53:52.354Z,70.93
2018-12-14T06:54:52.829Z,71.40
2018-12-14T06:55:01.086Z,72.67
2018-12-14T06:56:02.580Z,72.70
2018-12-14T06:57:03.031Z,72.95
2018-12-14T06:58:03.446Z,72.62
2018-12-14T06:59:03.960Z,72.33
2018-12-14T07:00:04.436Z,72.48
2018-12-14T07:01:04.977Z,72.16
2018-12-14T07:02:05.360Z,72.05
2018-12-14T07:03:05.855Z,72.04
2018-12-14T07:04:06.384Z,72.40
2018-12-14T07:05:06.980Z,72.59
2018-12-14T07:06:07.168Z,72.20
2018-12-14T07:07:07.673Z,72.45
2018-12-14T07:08:08.501Z,73.17
2018-12-14T07:09:09.025Z,73.49
2018-12-14T07:10:09.936Z,71.51
2018-12-14T07:11:10.390Z,71.50
2018-12-14T07:12:10.831Z,71.61
2018-12-14T07:13:11.515Z,72.04
2018-12-14T07:14:12.205Z,72.00
2018-12-14T07:15:13.085Z,71.64
2018-12-14T07:16:13.666Z,71.06
2018-12-14T07:17:14.452Z,71.37
2018-12-14T07:18:15.374Z,71.69
2018-12-14T07:19:15.814Z,71.99
2018-12-14T07:20:16.289Z,72.39
2018-12-14T07:21:16.753Z,72.60
2018-12-14T07:22:17.225Z,72.47
2018-12-14T07:23:17.658Z,73.02
2018-12-14T07:24:17.716Z,73.10
2018-12-14T07:25:18.193Z,73.21
2018-12-14T07:26:19.120Z,73.18
2018-12-14T07:27:19.624Z,72.46
2018-12-14T07:28:19.720Z,73.19
2018-12-14T07:29:20.272Z,73.35
2018-12-14T07:30:20.338Z,73.13
2018-12-14T07:31:21.108Z,73.35
2018-12-14T07:32:21.504Z,73.42
2018-12-14T07:33:21.932Z,74.18
2018-12-14T07:34:22.809Z,74.16
2018-12-14T07:35:23.492Z,73.69
2018-12-14T07:36:23.986Z,73.84
2018-12-14T07:37:24.840Z,74.09
2018-12-14T07:37:33.133Z,74.30
2018-12-14T07:38:33.866Z,74.23
2018-12-14T07:39:34.351Z,74.81
2018-12-14T07:40:35.020Z,74.50
2018-12-14T07:41:35.375Z,74.59
2018-12-14T07:42:35.556Z,74.25
2018-12-14T07:43:35.984Z,74.46
2018-12-14T07:44:37.490Z,74.71
2018-12-14T07:45:35.726Z,74.30
2018-12-14T07:46:37.268Z,74.57
2018-12-14T07:47:37.973Z,74.43
2018-12-14T07:48:38.821Z,74.35
2018-12-14T07:49:39.298Z,74.67
2018-12-14T07:50:39.714Z,74.51
2018-12-14T07:51:40.371Z,74.67
2018-12-14T07:52:42.035Z,74.59
2018-12-14T07:53:41.841Z,74.29
2018-12-14T07:54:42.513Z,74.66
2018-12-14T07:55:42.956Z,74.37
2018-12-14T07:56:43.485Z,74.58
2018-12-14T07:57:43.838Z,74.73
2018-12-14T07:58:44.829Z,75.59
2018-12-14T07:59:45.228Z,75.50
2018-12-14T08:00:45.697Z,75.35
2018-12-14T08:01:46.446Z,75.52
2018-12-14T08:02:47.053Z,75.80
2018-12-14T08:03:47.848Z,76.11
2018-12-14T08:04:48.361Z,76.36
2018-12-14T08:05:48.875Z,76.02
2018-12-14T08:06:50.581Z,75.88
2018-12-14T08:07:50.310Z,76.45
2018-12-14T08:08:53.708Z,75.72
2018-12-14T08:09:51.486Z,75.98
2018-12-14T08:10:52.368Z,76.30
2018-12-14T08:11:52.772Z,75.41
2018-12-14T08:12:53.291Z,75.44
2018-12-14T08:13:54.038Z,75.66
2018-12-14T08:14:54.818Z,74.95
2018-12-14T08:15:55.504Z,74.81
2018-12-14T08:16:56.388Z,75.86
2018-12-14T08:17:56.824Z,75.52
2018-12-14T08:18:57.463Z,75.58
2018-12-14T08:19:57.700Z,75.47
2018-12-14T08:20:58.219Z,75.85
2018-12-14T08:21:58.642Z,76.34
2018-12-14T08:22:59.112Z,75.31
2018-12-14T08:23:07.358Z,76.12
2018-12-14T08:24:09.118Z,76.02
2018-12-14T08:25:09.945Z,75.04
2018-12-14T08:26:10.674Z,75.54
2018-12-14T08:27:11.175Z,75.58
2018-12-14T08:28:11.865Z,75.52
2018-12-14T08:29:12.389Z,74.95
2018-12-14T08:30:12.676Z,75.47
2018-12-14T08:31:12.056Z,75.21
2018-12-14T08:32:13.718Z,75.25
2018-12-14T08:33:14.383Z,75.40
2018-12-14T08:34:14.731Z,75.70
2018-12-14T08:35:15.519Z,75.54
2018-12-14T08:36:16.393Z,75.53
2018-12-14T08:37:16.762Z,75.30
2018-12-14T08:38:17.442Z,75.28
2018-12-14T08:39:17.987Z,75.14
2018-12-14T08:40:18.578Z,75.12
2018-12-14T08:41:19.516Z,75.57
2018-12-14T08:42:20.391Z,74.89
2018-12-14T08:43:20.203Z,75.24
2018-12-14T08:44:20.546Z,75.49
2018-12-14T08:45:21.913Z,75.12
2018-12-14T08:46:22.752Z,75.02
2018-12-14T08:47:23.601Z,74.93
2018-12-14T08:48:24.155Z,75.40
2018-12-14T08:49:24.501Z,75.41
2018-12-14T08:50:25.104Z,74.98
2018-12-14T08:51:25.866Z,74.97
2018-12-14T08:52:26.316Z,75.28
2018-12-14T08:53:27.249Z,74.18
2018-12-14T08:54:27.795Z,74.29
2018-12-14T08:55:28.545Z,74.26
2018-12-14T08:56:29.250Z,74.71
2018-12-14T08:57:29.669Z,74.29
2018-12-14T08:58:30.165Z,74.62
2018-12-14T08:59:30.694Z,73.91
2018-12-14T09:00:31.328Z,73.90
2018-12-14T09:01:31.832Z,74.37
2018-12-14T09:02:32.229Z,74.22
2018-12-14T09:03:32.741Z,73.61
2018-12-14T09:04:33.148Z,73.92
2018-12-14T09:05:33.738Z,74.43
2018-12-14T09:06:34.217Z,73.98
2018-12-14T09:07:35.144Z,74.01
2018-12-14T09:08:36.058Z,73.87
2018-12-14T09:09:36.770Z,73.44
2018-12-14T09:10:37.443Z,73.62
2018-12-14T09:10:45.689Z,73.42
2018-12-14T09:11:47.414Z,73.46
2018-12-14T09:12:47.984Z,73.53
2018-12-14T09:13:48.401Z,73.55
2018-12-14T09:14:49.365Z,73.71
2018-12-14T09:15:49.946Z,73.42
2018-12-14T09:16:50.468Z,73.17
2018-12-14T09:17:51.369Z,73.49
2018-12-14T09:18:51.858Z,73.49
2018-12-14T09:19:52.431Z,73.77
2018-12-14T09:20:52.747Z,73.19
2018-12-14T09:21:52.819Z,73.14
2018-12-14T09:22:54.265Z,73.42
2018-12-14T09:23:53.291Z,73.29
2018-12-14T09:24:53.771Z,73.08
2018-12-14T09:25:54.318Z,73.27
2018-12-14T09:26:54.417Z,73.48
2018-12-14T09:27:54.840Z,71.59
2018-12-14T09:28:55.223Z,72.57
2018-12-14T09:29:55.854Z,72.32
2018-12-14T09:30:56.269Z,72.43
2018-12-14T09:31:56.642Z,72.76
2018-12-14T09:32:57.379Z,72.89
2018-12-14T09:33:58.246Z,72.78
2018-12-14T09:34:58.746Z,73.25
2018-12-14T09:35:59.229Z,73.44
2018-12-14T09:36:58.969Z,73.41
2018-12-14T09:38:00.553Z,72.48
2018-12-14T09:39:01.359Z,73.04
2018-12-14T09:40:01.747Z,72.96
2018-12-14T09:41:02.288Z,72.36
2018-12-14T09:42:02.924Z,72.74
2018-12-14T09:43:03.432Z,72.88
2018-12-14T09:44:04.102Z,72.81
2018-12-14T09:45:04.755Z,72.78
2018-12-14T09:46:05.374Z,72.99
2018-12-14T09:47:05.818Z,72.75
2018-12-14T09:48:06.189Z,72.69
2018-12-14T09:49:06.539Z,73.59
2018-12-14T09:50:07.265Z,73.66
2018-12-14T09:51:12.347Z,73.10
2018-12-14T09:52:07.215Z,73.91
2018-12-14T09:53:08.873Z,73.63
2018-12-14T09:54:09.332Z,73.63
2018-12-14T09:55:09.702Z,73.21
2018-12-14T09:56:10.412Z,73.40
2018-12-14T09:57:10.800Z,73.75
2018-12-14T09:57:19.212Z,74.11
2018-12-14T09:58:20.528Z,74.15
2018-12-14T09:59:21.277Z,74.42
2018-12-14T10:00:21.833Z,74.87
2018-12-14T10:01:22.428Z,74.59
2018-12-14T10:02:23.027Z,74.16
2018-12-14T10:03:23.933Z,73.63
2018-12-14T10:04:24.656Z,73.97
2018-12-14T10:05:25.095Z,73.76
2018-12-14T10:06:25.946Z,74.03
2018-12-14T10:07:26.475Z,73.95
2018-12-14T10:08:26.795Z,73.65
2018-12-14T10:09:27.127Z,73.15
2018-12-14T10:10:27.491Z,72.12
2018-12-14T10:11:28.236Z,73.14
2018-12-14T10:12:28.581Z,73.30
2018-12-14T10:13:29.077Z,74.19
2018-12-14T10:14:29.996Z,72.91
2018-12-14T10:15:30.784Z,72.76
2018-12-14T10:16:31.495Z,73.33
2018-12-14T10:17:31.874Z,73.81
2018-12-14T10:18:32.773Z,73.96
2018-12-14T10:19:33.655Z,73.82
2018-12-14T10:20:34.176Z,74.20
2018-12-14T10:21:34.740Z,72.91
2018-12-14T10:22:41.394Z,73.24
2018-12-14T10:23:35.173Z,73.87
2018-12-14T10:24:36.747Z,74.22
2018-12-14T10:25:36.259Z,74.14
2018-12-14T10:26:37.797Z,74.12
2018-12-14T10:27:38.611Z,73.74
2018-12-14T10:28:39.056Z,74.07
2018-12-14T10:29:39.516Z,73.78
2018-12-14T10:30:39.070Z,73.89
2018-12-14T10:31:40.819Z,74.61
2018-12-14T10:32:41.561Z,74.06
2018-12-14T10:33:41.965Z,73.98
2018-12-14T10:34:42.634Z,73.22
2018-12-14T10:35:43.396Z,74.46
2018-12-14T10:36:44.014Z,73.80
2018-12-14T10:37:42.952Z,73.84
2018-12-14T10:38:44.516Z,74.36
2018-12-14T10:39:44.879Z,74.71
2018-12-14T10:40:45.630Z,74.12
2018-12-14T10:41:45.968Z,74.33
2018-12-14T10:42:46.318Z,74.68
2018-12-14T10:43:47.005Z,74.68
2018-12-14T10:44:46.991Z,74.52
2018-12-14T10:44:55.013Z,74.53
2018-12-14T10:45:56.037Z,74.56
2018-12-14T10:46:56.445Z,74.04
2018-12-14T10:47:56.881Z,74.35
2018-12-14T10:48:57.678Z,74.75
2018-12-14T10:49:58.011Z,75.05
2018-12-14T10:50:58.393Z,74.42
2018-12-14T10:51:58.823Z,74.84
2018-12-14T10:52:59.681Z,75.15
2018-12-14T10:54:00.336Z,74.81
2018-12-14T10:55:00.744Z,74.06
2018-12-14T10:56:01.316Z,74.21
2018-12-14T10:57:00.826Z,74.22
2018-12-14T10:58:02.340Z,73.97
2018-12-14T10:59:02.850Z,74.39
2018-12-14T11:00:03.329Z,74.91
2018-12-14T11:01:03.704Z,73.97
2018-12-14T11:02:04.576Z,74.14
2018-12-14T11:03:06.036Z,74.09
2018-12-14T11:04:05.481Z,73.85
2018-12-14T11:05:05.869Z,74.44
2018-12-14T11:06:06.439Z,75.01
2018-12-14T11:07:06.588Z,75.20
2018-12-14T11:08:07.088Z,74.37
2018-12-14T11:09:07.570Z,74.66
2018-12-14T11:10:08.090Z,74.33
2018-12-14T11:11:08.211Z,74.17
2018-12-14T11:12:08.914Z,74.23
2018-12-14T11:13:09.632Z,74.21
2018-12-14T11:14:13.906Z,73.95
2018-12-14T11:15:09.606Z,74.43
2018-12-14T11:16:10.858Z,73.90
2018-12-14T11:17:10.302Z,74.44
2018-12-14T11:18:11.982Z,74.25
2018-12-14T11:19:12.462Z,74.06
2018-12-14T11:20:13.058Z,73.71
2018-12-14T11:21:13.455Z,73.75
2018-12-14T11:22:13.813Z,73.87
2018-12-14T11:23:14.230Z,73.17
2018-12-14T11:24:14.828Z,74.11
2018-12-14T11:25:15.366Z,74.08
2018-12-14T11:26:16.076Z,74.27
2018-12-14T11:27:16.818Z,74.62
2018-12-14T11:28:17.479Z,74.34
2018-12-14T11:29:18.097Z,74.21
2018-12-14T11:30:17.502Z,74.11
2018-12-14T11:31:18.562Z,74.50
2018-12-14T11:31:28.602Z,74.63
2018-12-14T11:32:28.307Z,74.52
2018-12-14T11:33:27.830Z,74.05
2018-12-14T11:34:29.904Z,74.01
2018-12-14T11:35:29.090Z,74.09
2018-12-14T11:36:30.730Z,74.18
2018-12-14T11:37:31.291Z,74.88
2018-12-14T11:38:30.890Z,73.75
2018-12-14T11:39:32.689Z,74.10
2018-12-14T11:40:33.231Z,73.17
2018-12-14T11:41:34.002Z,73.52
2018-12-14T11:42:34.533Z,74.27
2018-12-14T11:43:34.566Z,74.00
2018-12-14T11:44:35.216Z,72.94
2018-12-14T11:45:35.634Z,73.05
2018-12-14T11:46:36.522Z,72.75
2018-12-14T11:47:36.909Z,72.93
2018-12-14T11:48:37.423Z,72.79
2018-12-14T11:49:38.015Z,73.59
2018-12-14T11:50:38.436Z,73.87
2018-12-14T11:51:38.874Z,73.03
2018-12-14T11:52:39.404Z,72.78
2018-12-14T11:53:39.878Z,73.67
2018-12-14T11:54:40.551Z,73.87
2018-12-14T11:55:41.224Z,73.15
2018-12-14T11:56:42.772Z,73.83
2018-12-14T11:57:41.411Z,73.73
2018-12-14T11:58:42.302Z,73.90
2018-12-14T11:59:44.212Z,73.06
2018-12-14T12:00:44.602Z,72.34
2018-12-14T12:01:45.171Z,73.08
2018-12-14T12:02:44.152Z,73.47
2018-12-14T12:03:45.664Z,73.13
2018-12-14T12:04:46.070Z,73.42
2018-12-14T12:05:46.813Z,73.07
2018-12-14T12:06:47.221Z,72.99
2018-12-14T12:07:47.578Z,73.29
2018-12-14T12:08:48.051Z,72.36
2018-12-14T12:09:48.786Z,73.47
2018-12-14T12:10:49.202Z,73.09
2018-12-14T12:11:50.089Z,72.79
2018-12-14T12:12:50.478Z,72.11
2018-12-14T12:13:50.897Z,71.65
2018-12-14T12:14:51.511Z,72.70
2018-12-14T12:15:51.946Z,72.73
2018-12-14T12:16:52.486Z,73.11
2018-12-14T12:17:53.201Z,73.59
2018-12-14T12:18:53.696Z,72.38
2018-12-14T12:19:54.290Z,72.88
2018-12-14T12:20:02.625Z,72.28
2018-12-14T12:21:03.377Z,72.23
2018-12-14T12:22:03.894Z,72.40
2018-12-14T12:23:04.446Z,72.47
2018-12-14T12:24:05.068Z,72.47
2018-12-14T12:25:05.759Z,72.07
2018-12-14T12:26:06.250Z,71.72
2018-12-14T12:27:06.616Z,72.20
2018-12-14T12:28:07.042Z,71.60
2018-12-14T12:29:07.790Z,72.26
2018-12-14T12:30:08.273Z,72.01
2018-12-14T12:31:08.811Z,72.55
2018-12-14T12:32:09.389Z,72.37
2018-12-14T12:33:09.070Z,72.00
2018-12-14T12:34:10.433Z,72.34
2018-12-14T12:35:10.982Z,71.98
2018-12-14T12:36:11.707Z,72.07
2018-12-14T12:37:11.717Z,72.47
2018-12-14T12:38:12.267Z,72.59
2018-12-14T12:39:12.711Z,72.56
2018-12-14T12:40:13.206Z,72.81
2018-12-14T12:41:13.180Z,73.29
2018-12-14T12:42:13.213Z,72.82
2018-12-14T12:43:13.680Z,72.68
2018-12-14T12:44:14.234Z,72.55
2018-12-14T12:45:14.998Z,71.49